Alger, Ohio
Current Conditions -  °F | °C
As of 6:53 AM on Monday 22 Dec 2014 (Local Time) from KAOH Reporting Station
Haze Haze  
Wind Chill: -7°   Ceiling: Unl
Heat Index: -3°   Visibility: 4mi
Dew Point: -6°   Wind: 7mph
Humidity: 81%   Direction: 120°ESE
Pressure: 30.04"   Gusts: NA
Location:  40.71°N, 83.84°W
Report Text: KAOH 221153Z AUTO 12006KT 4SM HZ FEW040 M03/M06 A3004 RMK AO2 SLP184 T10281056 11017 21033 55008
Loading
Personal Weather Stations






























Interactive Weather Map New forecast layout! Learn more

10-Day Weather Forecast

Advertisements
Track Severe Weather on mobile